Senecaville, OH (43780)

10:56 AM EDT on May 27, 2015 (GMT -0400)
Downtown Cambridge | | Change Station
CLOSE
Current Station
Personal Weather Station
Location: Cambridge, OH
Elevation: 876 ft
Nearby Weather Stations

Elev 876 ft 40.03 °N, 81.59 °W | Updated 2 seconds ago

Overcast
Overcast
74.0 °F
Feels Like 76 °F
N
6.0
Wind Variable Wind from SW
Gusts 10.0 mph

Today
High -- | Low -- °F
--% Chance of Precip.
Yesterday
High -- | Low -- °F
Precip. -- in
6:01 AM 8:44 PM
Waxing Gibbous, 68% visible
Pressure 30.14 in
Visibility 8.0 miles
Clouds Scattered Clouds 2000 ft
Mostly Cloudy 3500 ft
Mostly Cloudy 4300 ft
Heat Index 76 °F
Dew Point 64 °F
Humidity 71%
Rainfall 0.00 in
Snow Depth Not available.
UV 4 out of 12
Pollen 8.10 out of 12
Air Quality Not available.
Flu Activity Local Activity
SPECI KZZV 271438Z AUTO 19010KT 8SM SCT020 BKN035 BKN043 22/17 A3014 RMK AO2 T02220172

More Conditions Fewer Conditions

Pressure 30.14 in
Visibility 8.0 miles
Clouds Scattered Clouds 2000 ft
Mostly Cloudy 3500 ft
Mostly Cloudy 4300 ft
Heat Index 76 °F
Dew Point 64 °F
Humidity 71%
Rainfall 0.00 in
Snow Depth Not available.
UV 4 out of 12
Pollen 8.10 out of 12
Air Quality Not available.
Flu Activity Local Activity
SPECI KZZV 271438Z AUTO 19010KT 8SM SCT020 BKN035 BKN043 22/17 A3014 RMK AO2 T02220172

More Conditions Fewer Conditions

10-Day Weather Forecast

Almanac

Astronomy

May. 27, 2015 Rise Set
Actual Time
Civil Twilight
Nautical Twilight
Astronomical Twilight
Moon
Length of Visible Light
Length of Day
Tomorrow will be .
, % of the Moon is Illuminated

Today's Extremes

State Highs State Lows

Community

WunderPhotos

Upload Photos

1,824,690 photos uploaded!

WunderBlogs® & News

Nearby

Air Quality

  Air Quality AQ Index Pollutant
Not available.

Snow Depth

Station Depth Elevation

Earthquake Activity

City Distance Mag. Time & Date
Minimum magnitude displayed is 2.5.

Coastal Water Temperatures

Place Temperature

Stations

Nearby Weather Stations

Station Location Temp. Windchill Dew Point Humidity Wind Precip. Elev Updated Type